createdAt,value
2022-10-02T00:02:27.298Z,99509.00
2022-10-02T00:05:36.139Z,99501.84
2022-10-02T00:08:43.741Z,99510.97
2022-10-02T00:11:50.386Z,99503.91
2022-10-02T00:15:00.570Z,99515.81
2022-10-02T00:18:11.605Z,99516.00
2022-10-02T00:21:25.204Z,99527.31
2022-10-02T00:24:37.885Z,99529.84
2022-10-02T00:28:29.183Z,99523.88
2022-10-02T00:32:10.355Z,99545.59
2022-10-02T00:35:31.056Z,99539.72
2022-10-02T00:39:10.985Z,99540.75
2022-10-02T00:42:25.469Z,99563.19
2022-10-02T00:45:28.376Z,99560.41
2022-10-02T00:48:36.927Z,99566.59
2022-10-02T00:51:52.638Z,99568.97
2022-10-02T00:55:31.821Z,99580.94
2022-10-02T00:58:44.854Z,99577.16
2022-10-02T01:01:55.895Z,99570.88
2022-10-02T01:05:04.976Z,99571.94
2022-10-02T01:08:08.531Z,99572.44
2022-10-02T01:11:13.524Z,99560.50
2022-10-02T01:14:16.307Z,99567.56
2022-10-02T01:17:30.385Z,99575.25
2022-10-02T01:20:41.729Z,99574.56
2022-10-02T01:24:07.551Z,99572.44
2022-10-02T01:27:10.526Z,99579.59
2022-10-02T01:30:17.882Z,99577.53
2022-10-02T01:33:21.204Z,99570.00
2022-10-02T01:36:24.469Z,99581.78
2022-10-02T01:39:27.499Z,99601.28
2022-10-02T01:42:30.567Z,99605.69
2022-10-02T01:45:52.685Z,99607.34
2022-10-02T01:49:24.958Z,99608.09
2022-10-02T01:53:06.522Z,99594.66
2022-10-02T01:56:15.229Z,99621.56
2022-10-02T01:59:56.790Z,99619.91
2022-10-02T02:03:11.476Z,99611.87
2022-10-02T02:06:26.094Z,99611.84
2022-10-02T02:09:35.835Z,99602.06
2022-10-02T02:12:41.707Z,99580.28
2022-10-02T02:15:52.802Z,99601.38
2022-10-02T02:19:20.856Z,99595.56
2022-10-02T02:22:33.302Z,99607.38
2022-10-02T02:25:41.034Z,99603.44
2022-10-02T02:28:55.049Z,99625.84
2022-10-02T02:32:00.214Z,99630.66
2022-10-02T02:35:19.252Z,99607.88
2022-10-02T02:38:30.422Z,99620.56
2022-10-02T02:41:40.572Z,99625.72
2022-10-02T02:44:50.166Z,99644.25
2022-10-02T02:47:56.161Z,99646.06
2022-10-02T02:51:09.378Z,99638.25
2022-10-02T02:54:19.688Z,99639.59
2022-10-02T02:57:28.846Z,99652.47
2022-10-02T03:00:31.618Z,99651.66
2022-10-02T03:03:34.499Z,99638.06
2022-10-02T03:06:40.910Z,99644.31
2022-10-02T03:09:58.119Z,99646.38
2022-10-02T03:13:29.663Z,99646.06
2022-10-02T03:16:38.666Z,99645.84
2022-10-02T03:19:50.526Z,99642.97
2022-10-02T03:23:00.103Z,99644.66
2022-10-02T03:26:09.694Z,99649.13
2022-10-02T03:29:19.581Z,99661.59
2022-10-02T03:32:24.175Z,99657.87
2022-10-02T03:35:28.221Z,99660.88
2022-10-02T03:38:31.884Z,99666.84
2022-10-02T03:41:34.802Z,99667.94
2022-10-02T03:44:37.637Z,99670.75
2022-10-02T03:47:40.519Z,99689.63
2022-10-02T03:50:43.208Z,99667.47
2022-10-02T03:53:46.222Z,99683.09
2022-10-02T03:56:54.446Z,99678.12
2022-10-02T04:00:09.746Z,99706.66
2022-10-02T04:03:21.633Z,99700.41
2022-10-02T04:06:38.429Z,99705.34
2022-10-02T04:09:51.665Z,99705.09
2022-10-02T04:13:02.246Z,99715.19
2022-10-02T04:16:42.587Z,99705.03
2022-10-02T04:19:53.028Z,99712.41
2022-10-02T04:23:26.463Z,99724.16
2022-10-02T04:26:34.071Z,99717.88
2022-10-02T04:29:47.653Z,99716.22
2022-10-02T04:32:50.982Z,99715.38
2022-10-02T04:36:20.053Z,99739.31
2022-10-02T04:39:36.011Z,99737.09
2022-10-02T04:42:38.866Z,99733.66
2022-10-02T04:45:50.349Z,99748.91
2022-10-02T04:49:15.149Z,99740.75
2022-10-02T04:52:53.201Z,99750.88
2022-10-02T04:56:07.596Z,99755.44
2022-10-02T04:59:13.357Z,99760.78
2022-10-02T05:02:56.341Z,99770.69
2022-10-02T05:06:17.289Z,99773.41
2022-10-02T05:09:31.708Z,99780.53
2022-10-02T05:13:16.449Z,99772.22
2022-10-02T05:34:53.302Z,99819.69
2022-10-02T05:38:10.051Z,99819.75
2022-10-02T05:41:12.537Z,99817.69
2022-10-02T05:44:20.321Z,99826.09
2022-10-02T05:47:30.539Z,99832.84
2022-10-02T05:50:37.939Z,99845.81
2022-10-02T05:53:45.405Z,99854.25
2022-10-02T05:56:54.830Z,99839.53
2022-10-02T06:00:22.261Z,99843.75
2022-10-02T06:03:33.381Z,99834.69
2022-10-02T06:06:47.963Z,99835.78
2022-10-02T06:10:19.630Z,99848.56
2022-10-02T06:13:27.547Z,99846.97
2022-10-02T06:16:40.126Z,99844.38
2022-10-02T06:20:04.746Z,99847.03
2022-10-02T06:23:20.839Z,99851.66
2022-10-02T06:26:36.850Z,99851.59
2022-10-02T06:29:45.731Z,99850.44
2022-10-02T06:33:17.586Z,99849.94
2022-10-02T06:36:48.620Z,99862.09
2022-10-02T06:39:53.962Z,99877.72
2022-10-02T06:43:04.632Z,99865.69
2022-10-02T06:46:39.569Z,99877.28
2022-10-02T06:49:48.465Z,99868.91
2022-10-02T06:53:06.011Z,99874.47
2022-10-02T06:56:27.407Z,99868.97
2022-10-02T06:59:42.090Z,99893.97
2022-10-02T07:03:02.741Z,99881.59
2022-10-02T07:06:21.927Z,99880.94
2022-10-02T07:09:43.006Z,99883.22
2022-10-02T07:12:48.149Z,99900.69
2022-10-02T07:16:23.447Z,99916.38
2022-10-02T07:19:44.290Z,99917.53
2022-10-02T07:23:09.943Z,99904.22
2022-10-02T07:26:33.573Z,99921.78
2022-10-02T07:30:01.646Z,99921.38
2022-10-02T07:33:29.935Z,99936.34
2022-10-02T07:36:52.932Z,99925.41
2022-10-02T07:40:34.772Z,99923.16
2022-10-02T07:43:43.755Z,99917.87
2022-10-02T07:47:02.286Z,99938.56
2022-10-02T07:50:31.345Z,99945.75
2022-10-02T07:53:49.739Z,99952.50
2022-10-02T07:56:56.795Z,99948.97
2022-10-02T08:00:06.282Z,99941.34
2022-10-02T08:03:21.471Z,99956.81
2022-10-02T08:06:24.367Z,99949.16
2022-10-02T08:09:36.594Z,99937.16
2022-10-02T08:13:06.017Z,99944.84
2022-10-02T08:16:10.666Z,99951.28
2022-10-02T08:19:17.397Z,99945.53
2022-10-02T08:22:33.841Z,99958.53
2022-10-02T08:25:49.463Z,99947.09
2022-10-02T08:29:05.637Z,99935.19
2022-10-02T08:32:13.040Z,99943.94
2022-10-02T08:35:17.948Z,99939.97
2022-10-02T08:38:36.566Z,99935.50
2022-10-02T08:42:01.938Z,99931.13
2022-10-02T08:45:36.720Z,99930.72
2022-10-02T08:49:07.316Z,99927.06
2022-10-02T08:52:29.156Z,99929.50
2022-10-02T08:55:53.750Z,99928.34
2022-10-02T08:59:26.534Z,99928.41
2022-10-02T09:02:50.630Z,99918.19
2022-10-02T09:05:59.389Z,99941.69
2022-10-02T09:09:40.036Z,99953.41
2022-10-02T09:13:05.385Z,99957.41
2022-10-02T09:16:23.626Z,99975.03
2022-10-02T09:19:49.723Z,99969.63
2022-10-02T09:23:14.106Z,99963.03
2022-10-02T09:26:34.893Z,99958.09
2022-10-02T09:30:04.722Z,99945.97
2022-10-02T09:33:24.207Z,99948.59
2022-10-02T09:36:30.230Z,99939.56
2022-10-02T09:39:45.416Z,99932.87
2022-10-02T09:43:15.558Z,99927.44
2022-10-02T09:46:52.949Z,99926.66
2022-10-02T09:50:22.238Z,99928.25
2022-10-02T09:53:38.324Z,99917.22
2022-10-02T09:57:00.456Z,99915.09
2022-10-02T10:00:34.532Z,99897.53
2022-10-02T10:03:49.288Z,99896.88
2022-10-02T10:07:16.303Z,99904.88
2022-10-02T10:10:42.679Z,99883.28
2022-10-02T10:13:56.002Z,99893.00
2022-10-02T10:17:39.198Z,99883.06
2022-10-02T10:20:56.693Z,99900.03
2022-10-02T10:24:19.486Z,99877.56
2022-10-02T10:27:59.190Z,99888.81
2022-10-02T10:31:35.676Z,99886.66
2022-10-02T10:34:59.947Z,99884.41
2022-10-02T10:38:33.346Z,99884.97
2022-10-02T10:42:14.648Z,99877.16
2022-10-02T10:45:34.592Z,99867.09
2022-10-02T10:49:09.727Z,99857.41
2022-10-02T10:52:39.076Z,99865.66
2022-10-02T10:55:47.668Z,99869.09
2022-10-02T10:59:06.418Z,99849.25
2022-10-02T11:02:21.103Z,99852.97
2022-10-02T11:05:57.950Z,99856.91
2022-10-02T11:09:26.900Z,99852.59
2022-10-02T11:13:11.538Z,99861.09
2022-10-02T11:16:55.179Z,99859.31
2022-10-02T11:20:37.860Z,99862.72
2022-10-02T11:23:55.384Z,99864.22
2022-10-02T11:27:35.951Z,99860.72
2022-10-02T11:31:19.045Z,99855.56
2022-10-02T11:34:43.474Z,99872.22
2022-10-02T11:38:09.711Z,99860.06
2022-10-02T11:41:36.172Z,99853.16
2022-10-02T11:45:04.516Z,99847.84
2022-10-02T11:48:34.727Z,99839.16
2022-10-02T11:51:50.918Z,99821.47
2022-10-02T11:54:59.753Z,99828.00
2022-10-02T11:58:21.255Z,99820.22
2022-10-02T12:01:37.371Z,99826.84
2022-10-02T12:04:47.272Z,99839.38
2022-10-02T12:08:19.157Z,99837.31
2022-10-02T12:11:36.420Z,99851.06
2022-10-02T12:15:14.607Z,99846.41
2022-10-02T12:18:33.199Z,99854.59
2022-10-02T12:22:22.530Z,99844.44
2022-10-02T12:26:08.861Z,99845.25
2022-10-02T12:29:48.463Z,99841.63
2022-10-02T12:33:04.089Z,99842.72
2022-10-02T12:36:33.573Z,99838.69
2022-10-02T12:40:06.133Z,99839.22
2022-10-02T12:43:27.689Z,99825.09
2022-10-02T12:46:59.630Z,99829.81
2022-10-02T12:50:21.985Z,99815.16
2022-10-02T12:54:06.256Z,99830.12
2022-10-02T12:57:45.534Z,99825.78
2022-10-02T13:00:48.539Z,99807.72
2022-10-02T13:04:18.664Z,99824.69
2022-10-02T13:07:30.387Z,99826.78
2022-10-02T13:11:07.721Z,99831.91
2022-10-02T13:14:44.706Z,99821.00
2022-10-02T13:17:50.235Z,99819.41
2022-10-02T13:21:04.973Z,99813.91
2022-10-02T13:24:16.333Z,99820.63
2022-10-02T13:27:34.303Z,99802.87
2022-10-02T13:30:49.748Z,99815.19
2022-10-02T13:34:06.023Z,99801.00
2022-10-02T13:37:17.562Z,99795.63
2022-10-02T13:40:55.918Z,99789.50
2022-10-02T13:44:37.283Z,99789.16
2022-10-02T13:48:05.815Z,99792.22
2022-10-02T13:51:18.999Z,99782.69
2022-10-02T13:55:04.789Z,99767.25
2022-10-02T13:58:39.015Z,99760.69
2022-10-02T14:02:04.843Z,99748.03
2022-10-02T14:05:38.185Z,99754.22
2022-10-02T14:09:09.752Z,99745.28
2022-10-02T14:12:22.934Z,99738.00
2022-10-02T14:15:46.963Z,99746.62
2022-10-02T14:19:03.082Z,99749.97
2022-10-02T14:22:13.197Z,99748.69
2022-10-02T14:25:36.222Z,99742.69
2022-10-02T14:36:09.713Z,99744.31
2022-10-02T14:39:41.886Z,99742.78
2022-10-02T14:43:11.665Z,99748.16
2022-10-02T14:46:38.808Z,99724.66
2022-10-02T14:50:14.500Z,99722.84
2022-10-02T14:53:35.662Z,99740.28
2022-10-02T14:56:44.180Z,99720.31
2022-10-02T15:00:06.220Z,99696.75
2022-10-02T15:03:12.251Z,99684.91
2022-10-02T15:06:25.915Z,99690.97
2022-10-02T15:09:50.091Z,99681.94
2022-10-02T15:13:00.992Z,99666.56
2022-10-02T15:16:44.962Z,99656.72
2022-10-02T15:20:11.203Z,99644.72
2022-10-02T15:23:43.012Z,99639.72
2022-10-02T15:26:53.134Z,99633.47
2022-10-02T15:30:12.947Z,99620.03
2022-10-02T15:33:37.232Z,99619.56
2022-10-02T15:37:09.558Z,99632.75
2022-10-02T15:40:21.471Z,99605.37
2022-10-02T15:43:33.615Z,99613.37
2022-10-02T15:47:02.649Z,99612.56
2022-10-02T15:50:33.353Z,99593.72
2022-10-02T15:53:58.214Z,99617.31
2022-10-02T15:57:26.701Z,99613.78
2022-10-02T16:01:00.296Z,99614.06
2022-10-02T16:04:12.889Z,99618.75
2022-10-02T16:07:21.615Z,99614.69
2022-10-02T16:10:26.664Z,99613.31
2022-10-02T16:13:56.714Z,99609.50
2022-10-02T16:17:06.258Z,99624.03
2022-10-02T16:20:21.023Z,99633.66
2022-10-02T16:23:45.365Z,99632.56
2022-10-02T16:27:25.722Z,99630.94
2022-10-02T16:30:37.654Z,99619.97
2022-10-02T16:33:43.148Z,99618.88
2022-10-02T16:36:54.002Z,99625.97
2022-10-02T16:40:18.171Z,99631.47
2022-10-02T16:43:39.056Z,99644.34
2022-10-02T16:46:50.761Z,99644.94
2022-10-02T16:50:12.035Z,99644.66
2022-10-02T16:53:46.727Z,99650.41
2022-10-02T16:57:26.239Z,99653.97
2022-10-02T17:00:31.529Z,99641.06
2022-10-02T17:03:42.633Z,99655.03
2022-10-02T17:07:21.983Z,99652.88
2022-10-02T17:10:53.421Z,99637.50
2022-10-02T17:14:28.216Z,99649.03
2022-10-02T17:17:36.986Z,99646.31
2022-10-02T17:20:48.942Z,99659.72
2022-10-02T17:24:19.567Z,99655.88
2022-10-02T17:27:48.206Z,99665.47
2022-10-02T17:31:03.310Z,99652.56
2022-10-02T17:34:22.045Z,99646.84
2022-10-02T17:37:45.452Z,99656.13
2022-10-02T17:41:17.404Z,99652.31
2022-10-02T17:44:45.385Z,99641.91
2022-10-02T17:47:53.874Z,99640.50
2022-10-02T17:51:52.808Z,99635.31
2022-10-02T17:55:51.906Z,99613.41
2022-10-02T17:59:24.146Z,99619.72
2022-10-02T18:02:29.840Z,99594.22
2022-10-02T18:05:56.387Z,99614.50
2022-10-02T18:09:23.134Z,99622.13
2022-10-02T18:12:38.080Z,99623.81
2022-10-02T18:16:06.198Z,99615.03
2022-10-02T18:19:20.683Z,99635.31
2022-10-02T18:22:45.488Z,99621.63
2022-10-02T18:26:06.400Z,99629.84
2022-10-02T18:29:43.845Z,99643.28
2022-10-02T18:32:47.119Z,99645.72
2022-10-02T18:36:03.399Z,99630.09
2022-10-02T18:39:44.903Z,99634.78
2022-10-02T18:43:21.138Z,99629.81
2022-10-02T18:46:49.669Z,99630.13
2022-10-02T18:50:29.224Z,99634.81
2022-10-02T18:53:59.143Z,99626.84
2022-10-02T18:57:07.909Z,99618.88
2022-10-02T19:00:24.566Z,99626.28
2022-10-02T19:03:37.522Z,99615.28
2022-10-02T19:06:56.910Z,99603.25
2022-10-02T19:10:26.372Z,99604.06
2022-10-02T19:13:30.019Z,99585.16
2022-10-02T19:16:32.719Z,99588.16
2022-10-02T19:19:36.960Z,99578.31
2022-10-02T19:22:41.062Z,99592.00
2022-10-02T19:25:47.880Z,99592.84
2022-10-02T19:29:06.054Z,99592.28
2022-10-02T19:32:23.092Z,99598.31
2022-10-02T19:35:34.589Z,99604.06
2022-10-02T19:38:39.938Z,99596.94
2022-10-02T19:41:44.212Z,99592.00
2022-10-02T19:44:59.421Z,99619.13
2022-10-02T19:48:08.238Z,99617.22
2022-10-02T19:51:21.197Z,99619.16
2022-10-02T19:54:33.072Z,99606.53
2022-10-02T19:57:40.547Z,99601.09
2022-10-02T20:00:43.255Z,99600.81
2022-10-02T20:03:51.519Z,99597.50
2022-10-02T20:06:57.361Z,99596.41
2022-10-02T20:10:12.215Z,99585.16
2022-10-02T20:13:22.189Z,99590.09
2022-10-02T20:16:44.730Z,99575.03
2022-10-02T20:19:56.161Z,99566.78
2022-10-02T20:23:04.490Z,99570.62
2022-10-02T20:26:11.360Z,99550.34
2022-10-02T20:29:26.986Z,99556.91
2022-10-02T20:32:42.157Z,99568.44
2022-10-02T20:35:54.934Z,99560.75
2022-10-02T20:39:00.417Z,99566.75
2022-10-02T20:42:09.881Z,99573.34
2022-10-02T20:45:13.920Z,99585.06
2022-10-02T20:48:43.581Z,99588.38
2022-10-02T20:52:13.887Z,99590.59
2022-10-02T20:55:30.329Z,99575.78
2022-10-02T20:59:02.119Z,99575.50
2022-10-02T21:02:27.512Z,99576.31
2022-10-02T21:06:08.285Z,99579.63
2022-10-02T21:09:36.258Z,99573.87
2022-10-02T21:12:44.364Z,99565.91
2022-10-02T21:16:22.415Z,99572.53
2022-10-02T21:20:05.147Z,99567.03
2022-10-02T21:23:32.944Z,99570.06
2022-10-02T21:27:12.685Z,99570.31
2022-10-02T21:30:18.350Z,99587.06
2022-10-02T21:33:49.530Z,99582.37
2022-10-02T21:37:07.356Z,99570.84
2022-10-02T21:40:39.514Z,99578.81
2022-10-02T21:44:06.834Z,99590.00
2022-10-02T21:47:40.298Z,99582.87
2022-10-02T21:51:11.928Z,99598.50
2022-10-02T21:54:47.784Z,99600.72
2022-10-02T21:58:24.621Z,99584.28
2022-10-02T22:02:07.109Z,99587.03
2022-10-02T22:05:35.392Z,99587.84
2022-10-02T22:08:56.805Z,99575.25
2022-10-02T22:12:39.654Z,99571.69
2022-10-02T22:16:12.301Z,99571.41
2022-10-02T22:19:47.378Z,99573.91
2022-10-02T22:23:21.042Z,99579.38
2022-10-02T22:26:23.995Z,99574.19
2022-10-02T22:29:45.112Z,99582.69
2022-10-02T22:33:12.069Z,99581.59
2022-10-02T22:36:51.533Z,99582.97
2022-10-02T22:40:14.335Z,99587.91
2022-10-02T22:43:33.656Z,99588.47
2022-10-02T22:46:47.070Z,99585.16
2022-10-02T22:49:52.436Z,99580.50
2022-10-02T22:53:20.323Z,99591.72
2022-10-02T22:56:27.038Z,99589.53
2022-10-02T22:59:38.986Z,99585.12
2022-10-02T23:03:05.745Z,99595.84
2022-10-02T23:06:21.709Z,99603.50
2022-10-02T23:09:48.418Z,99615.53
2022-10-02T23:13:15.333Z,99607.31
2022-10-02T23:16:20.674Z,99605.97
2022-10-02T23:19:45.728Z,99599.66
2022-10-02T23:22:58.276Z,99596.91
2022-10-02T23:26:47.553Z,99593.88
2022-10-02T23:30:00.384Z,99600.19
2022-10-02T23:33:17.894Z,99608.94
2022-10-02T23:36:45.583Z,99615.78
2022-10-02T23:39:52.582Z,99611.38
2022-10-02T23:43:03.166Z,99597.41
2022-10-02T23:46:14.992Z,99598.75
2022-10-02T23:49:30.532Z,99611.09
2022-10-02T23:52:51.119Z,99603.44
2022-10-02T23:56:23.931Z,99587.25
2022-10-02T23:59:51.884Z,99616.56
